• Join FlightAware (Why Join?)
  • Login
  • US Flag 
12:03PM EDT


 

Airport Tracker/Info


-or-


 

Live Flight TrackerFlight Track Log ✈ SKW5631 ✈ 15-Jun-2013 ✈ KSFO - KBUR

Flight Track Log - Related Links

Times and Time Zones

All times are in EDT time to prevent confusion due to time zone crossing. See the SKW5631 flight status page for this flight to view local times or setup timezone preferences in your user account.

Time Position Orientation Groundspeed Altitude Reporting Facility
EDT Latitude Longitude Course Direction KTS MPH feet Rate Location/Type
11:30PM 37.3545 -122.0455 135° Southeast  Level Estimated
11:31PM 37.2661 -121.9362 135° Southeast  Level Estimated
11:32PM 37.1776 -121.8270 135° Southeast  Level Estimated
11:33PM 37.0890 -121.7182 136° Southeast  Level Estimated
11:34PM 37.0003 -121.6095 136° Southeast  Level Estimated
11:35PM 36.9115 -121.5012 136° Southeast  Level Estimated
11:36PM 36.8226 -121.3931 136° Southeast  Level Estimated
11:37PM 36.7336 -121.2852 136° Southeast  Level Estimated
11:38PM 36.6445 -121.1776 136° Southeast  Level Estimated
11:39PM 36.5553 -121.0702 136° Southeast  Level Estimated
11:40PM 36.4660 -120.9631 136° Southeast  Level Estimated
11:41PM 36.3767 -120.8563 136° Southeast  Level Estimated
11:42PM 36.2872 -120.7496 136° Southeast  Level Estimated
11:43PM 36.1976 -120.6433 136° Southeast  Level Estimated
11:44PM 36.1079 -120.5371 136° Southeast  Level Estimated
11:45PM 36.0182 -120.4312 136° Southeast  Level Estimated
11:46PM 35.9283 -120.3256 136° Southeast  Level Estimated
11:47PM 35.8384 -120.2202 136° Southeast  Level Estimated
11:48PM 35.7484 -120.1150 137° Southeast  Level Estimated
11:49PM 35.6582 -120.0101 137° Southeast  Level Estimated
11:50PM 35.5680 -119.9054 137° Southeast  Level Estimated
11:51PM 35.4777 -119.8009 137° Southeast  Level Estimated
11:52PM 35.3873 -119.6967 137° Southeast  Level Estimated
11:53PM 35.2968 -119.5927 137° Southeast  Level Estimated
11:54PM 35.2062 -119.4889 137° Southeast  Level Estimated
11:55PM 35.1156 -119.3854 137° Southeast  Level Estimated
11:56PM 35.0248 -119.2821 137° Southeast  Level Estimated
11:57PM 34.9340 -119.1790 137° Southeast  Level Estimated
11:58PM 34.8431 -119.0762 137° Southeast  Level Estimated
11:59PM 34.7521 -118.9736 137° Southeast  Level Estimated
12:00AM 34.6610 -118.8712 137° Southeast  Level Estimated
12:01AM 34.5698 -118.7690 137° Southeast  Level Estimated
12:02AM 34.4785 -118.6671 137° Southeast  Level Estimated
12:03AM 34.3872 -118.5654 137° Southeast  Level Estimated
12:04AM 34.2957 -118.4639 137° Southeast  Level Estimated
12:05AM 34.2042 -118.3626 138° Southeast  Level Estimated
12:06AM 34.2007 -118.3587 138° Southeast  Level Estimated
12:07AM 34.2007 -118.3587 140° Southeast  Level Estimated
12:08AM 34.2007 -118.3587 140° Southeast  Level Estimated
12:09AM 34.2007 -118.3587 140° Southeast  Level Estimated
12:10AM 34.2007 -118.3587 140° Southeast  Level Estimated
12:11AM 34.2007 -118.3587 140° Southeast  Level Estimated
12:12AM 34.2007 -118.3587 140° Southeast  Level Estimated
12:13AM 34.2007 -118.3587 140° Southeast  Level Estimated
12:14AM 34.2007 -118.3587 140° Southeast  Level Estimated
12:15AM 34.2007 -118.3587 140° Southeast  Level Estimated
12:16AM 34.2007 -118.3587 140° Southeast  Level Estimated
12:17AM 34.2007 -118.3587 140° Southeast  Level Estimated
12:18AM 34.2007 -118.3587 140° Southeast  Level Estimated
12:19AM 34.2007 -118.3587 140° Southeast  Level Estimated
12:20AM 34.2007 -118.3587 140° Southeast  Level Estimated
12:21AM 34.2007 -118.3587 140° Southeast  Level Estimated